Brookfield, Ohio
Current Conditions -  °F | °C
As of 1:51 AM on Monday 24 Nov 2014 (Local Time) from KYNG Reporting Station
Overcast Overcast  
Wind Chill: 56°   Ceiling: 1500
Heat Index: 56°   Visibility: 10mi
Dew Point: 52°   Wind: 20mph
Humidity: 87%   Direction: 150°SSE
Pressure: 29.33"   Gusts: 32mph
Location:  41.23°N, 80.57°W
Report Text: KYNG 240651Z 15017G28KT 10SM FEW008 BKN015 OVC044 13/11 A2933 RMK AO2 PK WND 15029/0639 RAE22 SLP930 P0000 T01330111
Loading
Personal Weather Stations






























Interactive Weather Map New forecast layout! Learn more

10-Day Weather Forecast

Advertisements
Track Severe Weather on mobile